Time,TemperatureF,DewpointF,PressureIn,WindDirection,WindDirectionDegrees,WindSpeedMPH,WindSpeedGustMPH,Humidity,HourlyPrecipIn,Conditions,Clouds,dailyrainin,SoftwareType,DateUTC
2013-07-30 00:00:00,87.8,64.4,29.97,SE,135,7.4,-999.0,46,-99.99,,,0.00,Acu-Link.com,2013-07-30 05:00:00,
2013-07-30 00:15:00,87.8,64.4,29.97,SSE,157,3.1,-999.0,46,-99.99,,,0.00,Acu-Link.com,2013-07-30 05:15:00,
2013-07-30 00:30:00,87.4,64.1,29.97,East,90,5.1,-999.0,46,-99.99,,,0.00,Acu-Link.com,2013-07-30 05:30:00,
2013-07-30 00:46:00,86.9,63.6,29.98,ESE,112,3.1,-999.0,46,-99.99,,,0.00,Acu-Link.com,2013-07-30 05:46:00,
2013-07-30 01:16:00,86.2,63.6,29.97,SSW,202,7.4,-999.0,47,-99.99,,,0.00,Acu-Link.com,2013-07-30 06:16:00,
2013-07-30 01:32:00,86.0,64.0,29.97,NW,315,4.7,-999.0,48,-99.99,,,0.00,Acu-Link.com,2013-07-30 06:32:00,
2013-07-30 01:47:00,85.6,64.3,29.96,NNW,337,6.7,-999.0,49,-99.99,,,0.00,Acu-Link.com,2013-07-30 06:47:00,
2013-07-30 02:02:00,84.9,64.7,29.97,NE,45,5.8,-999.0,51,-99.99,,,0.00,Acu-Link.com,2013-07-30 07:02:00,
2013-07-30 02:17:00,84.4,65.4,29.98,NE,45,4.3,-999.0,53,-99.99,,,0.00,Acu-Link.com,2013-07-30 07:17:00,
2013-07-30 02:33:00,83.7,65.2,29.98,SW,225,7.4,-999.0,54,-99.99,,,0.00,Acu-Link.com,2013-07-30 07:33:00,
2013-07-30 02:48:00,82.9,66.1,29.98,West,270,3.1,-999.0,57,-99.99,,,0.00,Acu-Link.com,2013-07-30 07:48:00,
2013-07-30 03:03:00,82.6,66.3,29.98,SSW,202,5.1,-999.0,58,-99.99,,,0.00,Acu-Link.com,2013-07-30 08:03:00,
2013-07-30 03:18:00,82.6,66.8,29.99,SSE,157,7.8,-999.0,59,-99.99,,,0.00,Acu-Link.com,2013-07-30 08:18:00,
2013-07-30 03:34:00,82.2,67.4,29.99,WSW,247,8.3,-999.0,61,-99.99,,,0.00,Acu-Link.com,2013-07-30 08:34:00,
2013-07-30 03:49:00,81.7,67.8,29.99,West,270,3.8,-999.0,63,-99.99,,,0.00,Acu-Link.com,2013-07-30 08:49:00,
2013-07-30 04:04:00,81.1,68.7,29.99,WNW,292,3.8,-999.0,66,-99.99,,,0.00,Acu-Link.com,2013-07-30 09:04:00,
2013-07-30 04:19:00,80.8,69.2,29.99,SW,225,8.3,-999.0,68,-99.99,,,0.00,Acu-Link.com,2013-07-30 09:19:00,
2013-07-30 04:35:00,80.6,69.5,30.00,NE,45,3.8,-999.0,69,-99.99,,,0.00,Acu-Link.com,2013-07-30 09:35:00,
2013-07-30 04:50:00,80.2,70.4,30.01,ESE,112,3.1,-999.0,72,-99.99,,,0.00,Acu-Link.com,2013-07-30 09:50:00,
2013-07-30 05:05:00,79.9,70.4,30.02,South,180,2.2,-999.0,73,-99.99,,,0.00,Acu-Link.com,2013-07-30 10:05:00,
2013-07-30 05:20:00,79.7,71.1,30.02,SSW,202,3.8,-999.0,75,-99.99,,,0.00,Acu-Link.com,2013-07-30 10:20:00,
2013-07-30 05:36:00,79.5,71.3,30.02,East,90,4.7,-999.0,76,-99.99,,,0.00,Acu-Link.com,2013-07-30 10:36:00,
2013-07-30 05:51:00,79.3,71.5,30.03,ESE,112,4.3,-999.0,77,-99.99,,,0.00,Acu-Link.com,2013-07-30 10:51:00,
2013-07-30 06:06:00,79.3,71.5,30.04,West,270,5.1,-999.0,77,-99.99,,,0.00,Acu-Link.com,2013-07-30 11:06:00,
2013-07-30 06:21:00,79.3,71.9,30.05,ESE,112,3.1,-999.0,78,-99.99,,,0.00,Acu-Link.com,2013-07-30 11:21:00,
2013-07-30 06:37:00,79.2,71.7,30.05,East,90,3.1,-999.0,78,-99.99,,,0.00,Acu-Link.com,2013-07-30 11:37:00,
2013-07-30 06:52:00,79.2,71.7,30.07,WNW,292,6.3,-999.0,78,-99.99,,,0.00,Acu-Link.com,2013-07-30 11:52:00,
2013-07-30 07:07:00,79.2,71.7,30.08,NE,45,2.7,-999.0,78,-99.99,,,0.00,Acu-Link.com,2013-07-30 12:07:00,
2013-07-30 07:23:00,79.3,71.9,30.10,ESE,112,2.7,-999.0,78,-99.99,,,0.00,Acu-Link.com,2013-07-30 12:23:00,
2013-07-30 07:38:00,79.5,72.0,30.09,ESE,112,3.1,-999.0,78,-99.99,,,0.00,Acu-Link.com,2013-07-30 12:38:00,
2013-07-30 07:53:00,79.9,72.4,30.09,NE,45,3.8,-999.0,78,-99.99,,,0.00,Acu-Link.com,2013-07-30 12:53:00,
2013-07-30 08:08:00,80.4,72.9,30.09,East,90,3.8,-999.0,78,-99.99,,,0.00,Acu-Link.com,2013-07-30 13:08:00,
2013-07-30 08:24:00,81.0,73.1,30.09,North,0,5.1,-999.0,77,-99.99,,,0.00,Acu-Link.com,2013-07-30 13:24:00,
2013-07-30 08:39:00,81.7,73.0,30.09,ESE,112,4.7,-999.0,75,-99.99,,,0.00,Acu-Link.com,2013-07-30 13:39:00,
2013-07-30 08:54:00,81.3,72.6,30.08,West,270,4.7,-999.0,75,-99.99,,,0.00,Acu-Link.com,2013-07-30 13:54:00,
2013-07-30 09:10:00,81.7,73.0,30.08,ENE,67,3.8,-999.0,75,-99.99,,,0.00,Acu-Link.com,2013-07-30 14:10:00,
2013-07-30 09:25:00,82.2,72.7,30.07,NNW,337,9.4,-999.0,73,-99.99,,,0.00,Acu-Link.com,2013-07-30 14:25:00,
2013-07-30 09:40:00,82.9,73.0,30.06,NE,45,4.7,-999.0,72,-99.99,,,0.00,Acu-Link.com,2013-07-30 14:40:00,
2013-07-30 09:56:00,83.5,72.6,30.06,ENE,67,6.7,-999.0,70,-99.99,,,0.00,Acu-Link.com,2013-07-30 14:56:00,
2013-07-30 10:11:00,84.4,73.1,30.06,SSW,202,7.8,-999.0,69,-99.99,,,0.00,Acu-Link.com,2013-07-30 15:11:00,
2013-07-30 10:26:00,86.0,72.8,30.05,SW,225,7.8,-999.0,65,-99.99,,,0.00,Acu-Link.com,2013-07-30 15:26:00,
2013-07-30 10:41:00,85.5,72.3,30.05,West,270,4.3,-999.0,65,-99.99,,,0.00,Acu-Link.com,2013-07-30 15:41:00,
2013-07-30 10:56:00,86.4,72.7,30.05,ESE,112,3.8,-999.0,64,-99.99,,,0.00,Acu-Link.com,2013-07-30 15:56:00,
2013-07-30 11:11:00,88.0,72.3,30.04,West,270,5.1,-999.0,60,-99.99,,,0.00,Acu-Link.com,2013-07-30 16:11:00,
2013-07-30 11:27:00,88.9,72.7,30.04,NE,45,4.3,-999.0,59,-99.99,,,0.00,Acu-Link.com,2013-07-30 16:27:00,
2013-07-30 11:42:00,88.2,72.0,30.04,West,270,3.8,-999.0,59,-99.99,,,0.00,Acu-Link.com,2013-07-30 16:42:00,
2013-07-30 11:57:00,88.5,71.8,30.05,NNW,337,4.3,-999.0,58,-99.99,,,0.00,Acu-Link.com,2013-07-30 16:57:00,
2013-07-30 12:13:00,90.3,72.5,30.04,West,270,2.7,-999.0,56,-99.99,,,0.00,Acu-Link.com,2013-07-30 17:13:00,
2013-07-30 12:28:00,92.5,73.4,30.03,North,0,6.3,-999.0,54,-99.99,,,0.00,Acu-Link.com,2013-07-30 17:28:00,
2013-07-30 12:43:00,92.3,73.2,30.02,ENE,67,3.1,-999.0,54,-99.99,,,0.00,Acu-Link.com,2013-07-30 17:43:00,
2013-07-30 12:59:00,92.7,73.0,30.03,NE,45,2.7,-999.0,53,-99.99,,,0.00,Acu-Link.com,2013-07-30 17:59:00,
2013-07-30 13:14:00,93.7,72.8,30.02,SSE,157,5.8,-999.0,51,-99.99,,,0.00,Acu-Link.com,2013-07-30 18:14:00,
2013-07-30 13:29:00,95.2,73.0,30.02,SSE,157,3.8,-999.0,49,-99.99,,,0.00,Acu-Link.com,2013-07-30 18:29:00,
2013-07-30 13:44:00,95.9,72.4,30.01,West,270,10.3,-999.0,47,-99.99,,,0.00,Acu-Link.com,2013-07-30 18:44:00,
2013-07-30 14:00:00,95.4,72.5,30.02,NNE,22,4.7,-999.0,48,-99.99,,,0.00,Acu-Link.com,2013-07-30 19:00:00,
2013-07-30 14:15:00,95.0,71.6,30.02,NNW,337,3.8,-999.0,47,-99.99,,,0.00,Acu-Link.com,2013-07-30 19:15:00,
2013-07-30 14:30:00,94.8,72.0,30.01,NW,315,4.7,-999.0,48,-99.99,,,0.00,Acu-Link.com,2013-07-30 19:30:00,
2013-07-30 14:46:00,95.2,72.3,30.01,ESE,112,2.2,-999.0,48,-99.99,,,0.00,Acu-Link.com,2013-07-30 19:46:00,
2013-07-30 15:01:00,94.8,72.0,30.01,WNW,292,3.8,-999.0,48,-99.99,,,0.00,Acu-Link.com,2013-07-30 20:01:00,
2013-07-30 15:16:00,95.7,72.2,29.99,WNW,292,3.8,-999.0,47,-99.99,,,0.00,Acu-Link.com,2013-07-30 20:16:00,
2013-07-30 15:31:00,98.4,72.7,29.99,West,270,1.1,-999.0,44,-99.99,,,0.00,Acu-Link.com,2013-07-30 20:31:00,
2013-07-30 15:47:00,99.3,72.1,29.98,NW,315,3.1,-999.0,42,-99.99,,,0.00,Acu-Link.com,2013-07-30 20:47:00,
2013-07-30 16:02:00,99.5,73.0,29.98,WNW,292,2.7,-999.0,43,-99.99,,,0.00,Acu-Link.com,2013-07-30 21:02:00,
2013-07-30 16:17:00,99.5,72.3,29.97,WNW,292,4.3,-999.0,42,-99.99,,,0.00,Acu-Link.com,2013-07-30 21:17:00,
2013-07-30 16:32:00,98.8,71.6,29.97,NW,315,5.1,-999.0,42,-99.99,,,0.00,Acu-Link.com,2013-07-30 21:32:00,
2013-07-30 16:47:00,99.0,71.8,29.97,NNW,337,4.3,-999.0,42,-99.99,,,0.00,Acu-Link.com,2013-07-30 21:47:00,
2013-07-30 17:03:00,99.3,72.1,29.97,ESE,112,6.3,-999.0,42,-99.99,,,0.00,Acu-Link.com,2013-07-30 22:03:00,
2013-07-30 17:18:00,99.0,71.1,29.96,ESE,112,4.3,-999.0,41,-99.99,,,0.00,Acu-Link.com,2013-07-30 22:18:00,
2013-07-30 17:33:00,100.2,72.2,29.96,SW,225,2.2,-999.0,41,-99.99,,,0.00,Acu-Link.com,2013-07-30 22:33:00,
2013-07-30 17:48:00,100.0,71.3,29.96,WNW,292,2.2,-999.0,40,-99.99,,,0.00,Acu-Link.com,2013-07-30 22:48:00,
2013-07-30 18:04:00,100.2,71.5,29.95,ENE,67,2.7,-999.0,40,-99.99,,,0.00,Acu-Link.com,2013-07-30 23:04:00,
2013-07-30 18:19:00,99.1,70.5,29.95,WNW,292,4.3,-999.0,40,-99.99,,,0.00,Acu-Link.com,2013-07-30 23:19:00,
2013-07-30 18:34:00,98.6,70.8,29.95,WSW,247,4.7,-999.0,41,-99.99,,,0.00,Acu-Link.com,2013-07-30 23:34:00,
2013-07-30 18:50:00,98.1,70.3,29.95,West,270,2.7,-999.0,41,-99.99,,,0.00,Acu-Link.com,2013-07-30 23:50:00,
2013-07-30 19:05:00,97.7,68.5,29.94,NNE,22,2.2,-999.0,39,-99.99,,,0.00,Acu-Link.com,2013-07-31 00:05:00,
2013-07-30 19:20:00,97.2,68.0,29.94,West,270,2.7,-999.0,39,-99.99,,,0.00,Acu-Link.com,2013-07-31 00:20:00,
2013-07-30 19:36:00,96.3,68.0,29.95,West,270,2.7,-999.0,40,-99.99,,,0.00,Acu-Link.com,2013-07-31 00:36:00,
2013-07-30 19:51:00,95.9,67.6,29.94,WNW,292,1.6,-999.0,40,-99.99,,,0.00,Acu-Link.com,2013-07-31 00:51:00,
2013-07-30 20:06:00,95.9,66.9,29.95,South,180,4.3,-999.0,39,-99.99,,,0.00,Acu-Link.com,2013-07-31 01:06:00,
2013-07-30 20:21:00,95.2,67.7,29.95,East,90,1.6,-999.0,41,-99.99,,,0.00,Acu-Link.com,2013-07-31 01:21:00,
2013-07-30 20:51:00,93.7,68.5,29.97,West,270,4.7,-999.0,44,-99.99,,,0.00,Acu-Link.com,2013-07-31 01:51:00,
2013-07-30 21:07:00,93.2,68.0,29.96,South,180,1.6,-999.0,44,-99.99,,,0.00,Acu-Link.com,2013-07-31 02:07:00,
2013-07-30 21:22:00,92.3,67.8,29.96,ESE,112,2.2,-999.0,45,-99.99,,,0.00,Acu-Link.com,2013-07-31 02:22:00,
2013-07-30 21:37:00,91.9,68.2,29.97,SSW,202,4.7,-999.0,46,-99.99,,,0.00,Acu-Link.com,2013-07-31 02:37:00,
2013-07-30 21:52:00,91.8,68.0,29.98,SSW,202,1.6,-999.0,46,-99.99,,,0.00,Acu-Link.com,2013-07-31 02:52:00,
2013-07-30 22:07:00,91.0,67.3,29.99,NNE,22,2.2,-999.0,46,-99.99,,,0.00,Acu-Link.com,2013-07-31 03:07:00,
2013-07-30 22:22:00,90.7,67.6,29.99,ESE,112,1.1,-999.0,47,-99.99,,,0.00,Acu-Link.com,2013-07-31 03:22:00,
2013-07-30 22:38:00,90.3,66.7,29.98,SE,135,3.8,-999.0,46,-99.99,,,0.00,Acu-Link.com,2013-07-31 03:38:00,
2013-07-30 22:53:00,90.0,67.0,29.98,ESE,112,1.6,-999.0,47,-99.99,,,0.00,Acu-Link.com,2013-07-31 03:53:00,
2013-07-30 23:08:00,89.4,67.1,29.98,WNW,292,2.7,-999.0,48,-99.99,,,0.00,Acu-Link.com,2013-07-31 04:08:00,
2013-07-30 23:23:00,88.9,66.6,29.98,NE,45,2.2,-999.0,48,-99.99,,,0.00,Acu-Link.com,2013-07-31 04:23:00,
2013-07-30 23:39:00,88.5,66.9,29.98,ESE,112,1.1,-999.0,49,-99.99,,,0.00,Acu-Link.com,2013-07-31 04:39:00,
2013-07-30 23:54:00,88.5,66.9,29.99,ESE,112,1.1,-999.0,49,-99.99,,,0.00,Acu-Link.com,2013-07-31 04:54:00,